createdAt,value
2018-05-25T00:02:25.312Z,38.03
2018-05-25T00:04:52.913Z,67.07
2018-05-25T00:07:20.484Z,66.50
2018-05-25T00:09:48.091Z,77.10
2018-05-25T00:12:15.691Z,78.20
2018-05-25T00:14:43.257Z,78.07
2018-05-25T00:17:10.855Z,74.10
2018-05-25T00:19:39.230Z,60.97
2018-05-25T00:22:06.836Z,62.67
2018-05-25T00:24:34.402Z,74.70
2018-05-25T00:27:02.009Z,90.33
2018-05-25T00:29:29.578Z,60.17
2018-05-25T00:31:57.200Z,123.23
2018-05-25T00:34:24.772Z,190.63
2018-05-25T00:36:52.341Z,228.17
2018-05-25T00:39:19.952Z,261.97
2018-05-25T00:41:47.533Z,350.73
2018-05-25T00:44:15.148Z,293.20
2018-05-25T00:46:42.729Z,282.63
2018-05-25T00:49:10.291Z,273.23
2018-05-25T00:51:38.661Z,259.90
2018-05-25T00:54:07.029Z,316.60
2018-05-25T00:56:35.398Z,312.57
2018-05-25T00:59:03.148Z,341.87
2018-05-25T01:01:30.759Z,182.87
2018-05-25T01:03:58.349Z,230.73
2018-05-25T01:06:25.948Z,219.90
2018-05-25T01:08:53.523Z,151.23
2018-05-25T01:11:21.136Z,121.37
2018-05-25T01:13:48.711Z,125.80
2018-05-25T01:16:16.321Z,58.43
2018-05-25T01:18:43.893Z,54.47
2018-05-25T01:21:11.497Z,62.57
2018-05-25T01:23:39.073Z,60.13
2018-05-25T01:26:06.672Z,84.80
2018-05-25T01:28:34.246Z,65.13
2018-05-25T01:31:01.857Z,80.73
2018-05-25T01:33:29.421Z,73.13
2018-05-25T01:35:57.028Z,128.47
2018-05-25T01:38:24.652Z,123.20
2018-05-25T01:40:52.990Z,126.37
2018-05-25T01:43:20.600Z,215.37
2018-05-25T01:45:48.183Z,270.17
2018-05-25T01:48:15.760Z,234.53
2018-05-25T01:50:43.358Z,214.57
2018-05-25T01:53:10.932Z,269.30
2018-05-25T01:55:39.304Z,217.80
2018-05-25T01:58:06.912Z,268.10
2018-05-25T02:00:34.532Z,222.60
2018-05-25T02:03:02.914Z,210.43
2018-05-25T02:05:31.286Z,166.67
2018-05-25T02:07:59.043Z,149.20
2018-05-25T02:10:26.620Z,116.93
2018-05-25T02:12:54.220Z,114.17
2018-05-25T02:15:21.784Z,82.00
2018-05-25T02:17:49.382Z,81.70
2018-05-25T02:20:16.953Z,65.47
2018-05-25T02:22:44.555Z,59.67
2018-05-25T02:25:12.120Z,61.00
2018-05-25T02:27:39.725Z,57.80
2018-05-25T02:30:07.340Z,63.17
2018-05-25T02:32:34.945Z,58.60
2018-05-25T02:35:02.560Z,76.03
2018-05-25T02:37:30.138Z,91.23
2018-05-25T02:39:57.707Z,82.40
2018-05-25T02:42:25.318Z,123.80
2018-05-25T02:44:53.650Z,109.43
2018-05-25T02:47:21.260Z,137.13
2018-05-25T02:49:48.826Z,142.67
2018-05-25T02:52:16.433Z,192.37
2018-05-25T02:54:44.016Z,223.17
2018-05-25T02:57:11.716Z,273.10
2018-05-25T02:59:39.237Z,302.10
2018-05-25T03:02:06.814Z,310.10
2018-05-25T03:04:35.197Z,303.77
2018-05-25T03:07:03.531Z,347.50
2018-05-25T03:09:31.140Z,392.47
2018-05-25T03:11:58.712Z,413.20
2018-05-25T03:14:26.319Z,416.10
2018-05-25T03:16:53.890Z,424.37
2018-05-25T03:19:21.528Z,446.93
2018-05-25T03:21:49.103Z,428.47
2018-05-25T03:24:16.704Z,459.67
2018-05-25T03:26:45.082Z,446.87
2018-05-25T03:29:13.428Z,430.83
2018-05-25T03:31:41.036Z,435.50
2018-05-25T03:34:08.646Z,442.43
2018-05-25T03:36:36.256Z,455.77
2018-05-25T03:39:03.831Z,469.67
2018-05-25T03:41:31.436Z,493.43
2018-05-25T03:43:59.048Z,488.63
2018-05-25T03:46:26.629Z,481.07
2018-05-25T03:48:54.240Z,463.83
2018-05-25T03:51:21.863Z,478.57
2018-05-25T03:53:49.447Z,504.40
2018-05-25T03:56:17.056Z,513.47
2018-05-25T03:58:57.265Z,530.40
2018-05-25T04:01:36.605Z,533.20
2018-05-25T04:04:05.108Z,539.53
2018-05-25T04:06:32.720Z,537.43
2018-05-25T04:09:00.297Z,532.17
2018-05-25T04:11:27.902Z,542.10
2018-05-25T04:13:56.245Z,540.40
2018-05-25T04:16:23.868Z,552.03
2018-05-25T04:18:51.440Z,556.47
2018-05-25T04:21:19.052Z,566.07
2018-05-25T04:23:46.660Z,562.13
2018-05-25T04:26:14.234Z,566.10
2018-05-25T04:28:41.867Z,559.07
2018-05-25T04:31:09.468Z,569.30
2018-05-25T04:33:37.056Z,564.83
2018-05-25T04:36:04.675Z,563.43
2018-05-25T04:38:32.286Z,572.10
2018-05-25T04:41:00.668Z,568.73
2018-05-25T04:43:28.242Z,568.57
2018-05-25T04:45:56.608Z,556.20
2018-05-25T04:48:24.948Z,547.23
2018-05-25T04:50:52.736Z,556.30
2018-05-25T04:53:20.299Z,565.23
2018-05-25T04:55:47.907Z,564.93
2018-05-25T04:58:15.520Z,578.43
2018-05-25T05:00:43.095Z,567.37
2018-05-25T05:03:10.699Z,574.93
2018-05-25T05:05:38.274Z,581.93
2018-05-25T05:08:05.900Z,588.27
2018-05-25T05:10:33.480Z,601.77
2018-05-25T05:13:01.064Z,607.40
2018-05-25T05:15:28.672Z,605.43
2018-05-25T05:17:56.280Z,599.10
2018-05-25T05:20:23.866Z,582.13
2018-05-25T05:22:51.500Z,586.53
2018-05-25T05:25:19.088Z,612.60
2018-05-25T05:27:46.669Z,592.90
2018-05-25T05:30:14.289Z,584.80
2018-05-25T05:32:41.856Z,562.60
2018-05-25T05:35:09.479Z,582.03
2018-05-25T05:37:37.211Z,601.40
2018-05-25T05:40:04.794Z,611.87
2018-05-25T05:42:32.409Z,567.53
2018-05-25T05:45:00.032Z,597.50
2018-05-25T05:47:27.604Z,591.20
2018-05-25T05:49:55.177Z,616.67
2018-05-25T05:52:22.784Z,636.57
2018-05-25T05:54:50.397Z,634.37
2018-05-25T05:57:17.973Z,623.10
2018-05-25T05:59:45.579Z,609.27
2018-05-25T06:02:13.926Z,614.07
2018-05-25T06:04:41.535Z,630.00
2018-05-25T06:07:09.136Z,586.13
2018-05-25T06:09:36.703Z,583.03
2018-05-25T06:12:04.325Z,462.87
2018-05-25T06:14:31.937Z,312.23
2018-05-25T06:16:59.523Z,357.83
2018-05-25T06:19:27.133Z,362.03
2018-05-25T06:21:54.749Z,367.40
2018-05-25T06:24:22.332Z,360.07
2018-05-25T06:26:49.964Z,322.37
2018-05-25T06:29:17.545Z,256.97
2018-05-25T06:31:45.171Z,239.07
2018-05-25T06:34:12.760Z,217.97
2018-05-25T06:36:40.405Z,196.37
2018-05-25T06:39:08.001Z,175.40
2018-05-25T06:41:35.622Z,233.50
2018-05-25T06:44:03.261Z,229.40
2018-05-25T06:46:30.844Z,242.10
2018-05-25T06:48:58.476Z,207.73
2018-05-25T06:51:26.078Z,202.87
2018-05-25T06:53:53.743Z,162.20
2018-05-25T06:56:21.324Z,196.20
2018-05-25T06:58:48.917Z,241.23
2018-05-25T07:01:16.534Z,243.60
2018-05-25T07:03:44.116Z,177.67
2018-05-25T07:06:11.737Z,212.77
2018-05-25T07:08:39.350Z,178.67
2018-05-25T07:11:06.976Z,180.13
2018-05-25T07:13:34.559Z,178.00
2018-05-25T07:16:02.184Z,170.73
2018-05-25T07:18:29.776Z,153.73
2018-05-25T07:20:57.392Z,150.87
2018-05-25T07:23:24.993Z,150.03
2018-05-25T07:25:52.609Z,129.30
2018-05-25T07:28:20.256Z,124.90
2018-05-25T07:30:47.890Z,112.33
2018-05-25T07:33:15.479Z,122.60
2018-05-25T07:35:43.129Z,106.27
2018-05-25T07:38:10.749Z,103.03
2018-05-25T07:40:38.371Z,95.33
2018-05-25T07:43:05.946Z,92.53
2018-05-25T07:45:33.520Z,91.97
2018-05-25T07:48:01.148Z,91.50
2018-05-25T07:50:29.706Z,88.27
2018-05-25T07:52:57.327Z,94.47
2018-05-25T07:55:24.961Z,98.00
2018-05-25T07:57:52.593Z,101.63
2018-05-25T08:00:20.206Z,107.53
2018-05-25T08:02:47.773Z,111.97
2018-05-25T08:05:15.392Z,117.23
2018-05-25T08:07:42.979Z,125.03
2018-05-25T08:10:10.622Z,125.57
2018-05-25T08:12:38.306Z,131.73
2018-05-25T08:15:05.922Z,134.80
2018-05-25T08:17:33.559Z,141.03
2018-05-25T08:20:01.143Z,134.30
2018-05-25T08:22:28.772Z,137.23
2018-05-25T08:24:56.357Z,140.20
2018-05-25T08:27:23.989Z,140.03
2018-05-25T08:29:51.587Z,154.87
2018-05-25T08:32:19.163Z,158.13
2018-05-25T08:34:46.773Z,168.50
2018-05-25T08:37:14.361Z,173.13
2018-05-25T08:39:41.984Z,169.93
2018-05-25T08:42:09.570Z,155.47
2018-05-25T08:44:37.201Z,155.43
2018-05-25T08:47:04.798Z,156.60
2018-05-25T08:49:32.448Z,156.47
2018-05-25T08:52:00.048Z,160.20
2018-05-25T08:54:27.680Z,161.90
2018-05-25T08:56:56.038Z,159.47
2018-05-25T08:59:23.616Z,169.30
2018-05-25T09:01:52.009Z,191.53
2018-05-25T09:04:19.643Z,169.73
2018-05-25T09:06:47.303Z,171.80
2018-05-25T09:09:14.886Z,186.33
2018-05-25T09:11:43.285Z,204.47
2018-05-25T09:14:10.866Z,230.60
2018-05-25T09:16:38.533Z,235.17
2018-05-25T09:19:06.108Z,242.10
2018-05-25T09:21:33.736Z,360.00
2018-05-25T09:24:01.337Z,363.30
2018-05-25T09:26:28.963Z,346.93
2018-05-25T09:28:56.591Z,371.80
2018-05-25T09:31:24.176Z,370.27
2018-05-25T09:33:51.806Z,377.83
2018-05-25T09:36:19.493Z,382.60
2018-05-25T09:38:47.077Z,399.20
2018-05-25T09:41:14.684Z,416.67
2018-05-25T09:43:42.315Z,402.27
2018-05-25T09:46:09.947Z,451.10
2018-05-25T09:48:37.568Z,465.50
2018-05-25T09:51:05.161Z,477.03
2018-05-25T09:53:32.805Z,479.03
2018-05-25T09:56:00.413Z,478.37
2018-05-25T09:58:28.021Z,483.63
2018-05-25T10:00:55.607Z,477.13
2018-05-25T10:03:23.237Z,487.63
2018-05-25T10:05:50.828Z,487.33
2018-05-25T10:08:18.456Z,488.23
2018-05-25T10:10:46.047Z,480.67
2018-05-25T10:13:13.661Z,492.53
2018-05-25T10:15:41.296Z,497.80
2018-05-25T10:18:08.892Z,487.63
2018-05-25T10:20:36.558Z,472.83
2018-05-25T10:23:04.187Z,484.27
2018-05-25T10:25:31.790Z,482.03
2018-05-25T10:27:59.382Z,485.93
2018-05-25T10:30:27.768Z,479.83
2018-05-25T10:32:55.355Z,476.37
2018-05-25T10:35:22.981Z,491.37
2018-05-25T10:37:51.316Z,491.00
2018-05-25T10:40:18.961Z,492.83
2018-05-25T10:42:46.552Z,494.93
2018-05-25T10:45:14.164Z,499.00
2018-05-25T10:47:41.784Z,493.23
2018-05-25T10:50:09.369Z,495.07
2018-05-25T10:52:36.990Z,491.80
2018-05-25T10:55:04.652Z,494.93
2018-05-25T10:57:32.239Z,489.87
2018-05-25T10:59:59.862Z,494.73
2018-05-25T11:02:27.472Z,471.97
2018-05-25T11:04:55.856Z,499.93
2018-05-25T11:07:24.200Z,504.33
2018-05-25T11:09:51.782Z,512.70
2018-05-25T11:12:19.410Z,525.40
2018-05-25T11:14:46.988Z,524.97
2018-05-25T11:17:14.609Z,531.70
2018-05-25T11:19:42.252Z,498.20
2018-05-25T11:22:09.831Z,509.27
2018-05-25T11:24:37.412Z,510.80
2018-05-25T11:27:05.061Z,506.23
2018-05-25T11:29:32.622Z,510.90
2018-05-25T11:32:00.236Z,496.83
2018-05-25T11:34:27.823Z,490.17
2018-05-25T11:36:55.453Z,483.87
2018-05-25T11:39:23.033Z,466.13
2018-05-25T11:41:51.422Z,456.37
2018-05-25T11:44:19.009Z,443.10
2018-05-25T11:46:46.640Z,432.60
2018-05-25T11:49:14.988Z,408.03
2018-05-25T11:51:42.613Z,379.77
2018-05-25T11:54:10.237Z,361.40
2018-05-25T11:56:38.581Z,358.37
2018-05-25T11:59:06.205Z,378.70
2018-05-25T12:01:33.789Z,382.27
2018-05-25T12:04:01.421Z,394.73
2018-05-25T12:06:29.007Z,419.00
2018-05-25T12:08:56.631Z,393.20
2018-05-25T12:11:24.210Z,396.07
2018-05-25T12:13:51.847Z,394.97
2018-05-25T12:16:19.420Z,398.33
2018-05-25T12:18:47.004Z,408.77
2018-05-25T12:21:14.634Z,414.33
2018-05-25T12:23:42.209Z,407.33
2018-05-25T12:26:09.801Z,406.23
2018-05-25T12:28:37.432Z,406.20
2018-05-25T12:31:05.064Z,414.93
2018-05-25T12:33:32.648Z,428.10
2018-05-25T12:36:00.269Z,427.27
2018-05-25T12:38:27.849Z,421.63
2018-05-25T12:40:56.234Z,426.33
2018-05-25T12:43:24.632Z,424.70
2018-05-25T12:45:52.216Z,437.33
2018-05-25T12:48:19.792Z,444.83
2018-05-25T12:50:47.416Z,442.73
2018-05-25T12:53:15.011Z,407.20
2018-05-25T12:55:42.648Z,374.77
2018-05-25T12:58:10.233Z,330.53
2018-05-25T13:00:37.825Z,319.90
2018-05-25T13:03:05.448Z,310.03
2018-05-25T13:05:33.021Z,311.27
2018-05-25T13:08:00.641Z,304.17
2018-05-25T13:10:28.262Z,312.30
2018-05-25T13:12:55.899Z,301.93
2018-05-25T13:15:23.482Z,305.30
2018-05-25T13:17:51.103Z,307.50
2018-05-25T13:20:18.739Z,316.87
2018-05-25T13:22:46.319Z,294.03
2018-05-25T13:25:14.652Z,283.17
2018-05-25T13:27:42.266Z,266.93
2018-05-25T13:30:09.901Z,274.00
2018-05-25T13:32:37.490Z,280.20
2018-05-25T13:35:08.705Z,292.07
2018-05-25T13:37:36.340Z,301.30
2018-05-25T13:40:03.942Z,304.30
2018-05-25T13:42:31.528Z,316.93
2018-05-25T13:44:59.150Z,316.00
2018-05-25T13:47:26.776Z,308.90
2018-05-25T13:49:54.348Z,299.47
2018-05-25T13:52:21.943Z,286.80
2018-05-25T13:54:49.565Z,273.93
2018-05-25T13:57:17.140Z,250.37
2018-05-25T13:59:44.758Z,226.50
2018-05-25T14:02:12.330Z,232.90
2018-05-25T14:04:39.944Z,239.80
2018-05-25T14:07:08.295Z,239.70
2018-05-25T14:09:35.915Z,237.17
2018-05-25T14:12:03.502Z,212.27
2018-05-25T14:14:31.121Z,206.63
2018-05-25T14:16:58.703Z,185.47
2018-05-25T14:19:26.280Z,137.30
2018-05-25T14:21:53.909Z,119.33
2018-05-25T14:24:22.232Z,90.47
2018-05-25T14:26:49.849Z,67.60
2018-05-25T14:29:17.456Z,72.40
2018-05-25T14:31:45.030Z,75.97
2018-05-25T14:34:12.651Z,66.23
2018-05-25T14:36:40.262Z,54.27
2018-05-25T14:39:08.608Z,50.37
2018-05-25T14:41:36.224Z,53.40
2018-05-25T14:44:03.800Z,57.53
2018-05-25T14:46:31.409Z,63.43
2018-05-25T14:48:58.989Z,66.13
2018-05-25T14:51:26.608Z,67.93
2018-05-25T14:53:54.213Z,66.83
2018-05-25T14:56:21.781Z,64.70
2018-05-25T14:58:50.163Z,63.50
2018-05-25T15:01:18.527Z,64.70
2018-05-25T15:03:46.158Z,65.67
2018-05-25T15:06:13.740Z,62.90
2018-05-25T15:08:41.350Z,61.30
2018-05-25T15:11:08.955Z,62.40
2018-05-25T15:13:36.526Z,63.90
2018-05-25T15:16:04.136Z,64.07
2018-05-25T15:18:31.716Z,61.83
2018-05-25T15:20:59.334Z,60.77
2018-05-25T15:23:26.915Z,58.57
2018-05-25T15:25:54.525Z,62.20
2018-05-25T15:28:22.121Z,63.50
2018-05-25T15:30:50.677Z,63.23
2018-05-25T15:33:18.790Z,58.30
2018-05-25T15:35:48.254Z,46.07
2018-05-25T15:40:57.914Z,39.57
2018-05-25T15:43:28.890Z,39.43
2018-05-25T15:46:00.286Z,38.10
2018-05-25T15:48:31.894Z,38.20
2018-05-25T15:51:02.758Z,38.80
2018-05-25T15:53:38.727Z,38.23
2018-05-25T15:56:08.457Z,39.77
2018-05-25T16:01:21.903Z,42.03
2018-05-25T16:03:55.822Z,44.33
2018-05-25T16:06:30.776Z,47.23
2018-05-25T16:11:42.310Z,47.40
2018-05-25T16:14:16.619Z,49.13
2018-05-25T16:16:54.040Z,53.77
2018-05-25T16:22:10.483Z,55.70
2018-05-25T16:24:43.060Z,57.07
2018-05-25T16:27:18.116Z,55.37
2018-05-25T16:32:32.039Z,57.40
2018-05-25T16:35:03.326Z,56.80
2018-05-25T16:37:40.427Z,57.47
2018-05-25T16:40:17.850Z,57.77
2018-05-25T16:42:52.267Z,61.10
2018-05-25T16:45:25.891Z,65.47
2018-05-25T16:48:01.241Z,60.60
2018-05-25T16:53:14.678Z,61.83
2018-05-25T16:55:48.989Z,66.27
2018-05-25T16:58:23.591Z,63.90
2018-05-25T17:00:54.505Z,56.10
2018-05-25T17:03:28.713Z,48.30
2018-05-25T17:06:01.111Z,44.33
2018-05-25T17:08:30.534Z,41.37
2018-05-25T17:11:03.083Z,41.27
2018-05-25T17:16:19.985Z,41.17
2018-05-25T17:21:31.853Z,42.43
2018-05-25T17:24:04.310Z,41.83
2018-05-25T17:26:34.285Z,41.87
2018-05-25T17:31:41.034Z,40.37
2018-05-25T17:34:14.873Z,41.10
2018-05-25T17:39:28.603Z,42.87
2018-05-25T17:42:06.695Z,43.37
2018-05-25T17:44:38.027Z,43.83
2018-05-25T17:52:32.280Z,42.03
2018-05-25T17:55:06.009Z,38.20
2018-05-25T18:00:22.581Z,36.73
2018-05-25T18:03:01.284Z,40.27
2018-05-25T18:05:29.896Z,43.67
2018-05-25T18:13:14.131Z,66.53
2018-05-25T18:15:43.417Z,77.57
2018-05-25T18:18:11.413Z,103.70
2018-05-25T18:20:40.257Z,124.57
2018-05-25T18:23:08.373Z,178.70
2018-05-25T18:25:37.611Z,187.40
2018-05-25T18:28:06.466Z,233.80
2018-05-25T18:30:35.243Z,294.67
2018-05-25T18:33:03.619Z,285.63
2018-05-25T18:35:32.616Z,351.63
2018-05-25T18:38:01.469Z,381.40
2018-05-25T18:40:30.633Z,393.63
2018-05-25T18:43:00.566Z,430.40
2018-05-25T18:45:29.313Z,549.33
2018-05-25T18:47:57.911Z,544.50
2018-05-25T18:50:25.938Z,563.10
2018-05-25T18:52:54.556Z,567.10
2018-05-25T18:55:24.010Z,578.40
2018-05-25T18:57:52.684Z,575.30
2018-05-25T19:00:20.847Z,568.80
2018-05-25T19:02:48.989Z,563.83
2018-05-25T19:05:17.380Z,551.53
2018-05-25T19:07:44.998Z,542.13
2018-05-25T19:10:12.587Z,540.23
2018-05-25T19:12:40.233Z,529.47
2018-05-25T19:15:07.812Z,518.20
2018-05-25T19:17:35.382Z,506.07
2018-05-25T19:20:03.001Z,513.90
2018-05-25T19:22:30.625Z,520.27
2018-05-25T19:24:58.234Z,526.40
2018-05-25T19:27:25.852Z,528.57
2018-05-25T19:29:54.241Z,534.10
2018-05-25T19:32:21.896Z,551.57
2018-05-25T19:34:49.476Z,559.57
2018-05-25T19:37:17.113Z,571.60
2018-05-25T19:39:44.724Z,579.40
2018-05-25T19:42:12.409Z,592.70
2018-05-25T19:44:40.173Z,603.00
2018-05-25T19:47:07.752Z,609.80
2018-05-25T19:49:35.368Z,613.73
2018-05-25T19:52:02.992Z,614.93
2018-05-25T19:54:30.593Z,601.50
2018-05-25T19:56:58.175Z,604.67
2018-05-25T19:59:25.793Z,599.17
2018-05-25T20:01:53.393Z,577.90
2018-05-25T20:04:21.037Z,568.37
2018-05-25T20:06:48.610Z,570.80
2018-05-25T20:09:16.228Z,548.37
2018-05-25T20:11:43.801Z,550.03
2018-05-25T20:14:11.451Z,548.90
2018-05-25T20:16:39.032Z,563.77
2018-05-25T20:19:06.646Z,552.20
2018-05-25T20:21:34.264Z,568.30
2018-05-25T20:24:01.892Z,556.90
2018-05-25T20:26:29.473Z,571.13
2018-05-25T20:28:57.096Z,584.07
2018-05-25T20:31:24.686Z,580.07
2018-05-25T20:33:52.306Z,583.90
2018-05-25T20:36:19.937Z,593.03
2018-05-25T20:38:47.549Z,597.50
2018-05-25T20:41:15.133Z,616.77
2018-05-25T20:43:42.752Z,628.33
2018-05-25T20:46:10.330Z,643.20
2018-05-25T20:48:37.969Z,636.90
2018-05-25T20:51:05.550Z,648.87
2018-05-25T20:53:33.134Z,638.23
2018-05-25T20:56:01.521Z,630.93
2018-05-25T20:58:29.099Z,599.47
2018-05-25T21:00:57.493Z,598.20
2018-05-25T21:03:25.076Z,586.50
2018-05-25T21:05:52.653Z,551.20
2018-05-25T21:08:20.741Z,516.00
2018-05-25T21:10:48.359Z,463.73
2018-05-25T21:13:15.977Z,410.90
2018-05-25T21:15:44.387Z,400.90
2018-05-25T21:18:11.965Z,345.67
2018-05-25T21:20:39.586Z,327.50
2018-05-25T21:23:08.041Z,314.23
2018-05-25T21:25:35.917Z,302.83
2018-05-25T21:28:03.524Z,300.33
2018-05-25T21:30:31.617Z,298.07
2018-05-25T21:32:59.201Z,296.70
2018-05-25T21:35:26.813Z,279.50
2018-05-25T21:37:55.256Z,272.17
2018-05-25T21:40:23.159Z,259.60
2018-05-25T21:42:50.834Z,259.83
2018-05-25T21:45:18.605Z,250.40
2018-05-25T21:47:47.341Z,257.63
2018-05-25T21:50:14.990Z,261.77
2018-05-25T21:52:42.623Z,237.53
2018-05-25T21:55:10.236Z,235.87
2018-05-25T21:57:38.065Z,222.50
2018-05-25T22:00:06.306Z,211.30
2018-05-25T22:02:33.926Z,200.90
2018-05-25T22:05:01.530Z,209.60
2018-05-25T22:07:29.160Z,187.87
2018-05-25T22:09:57.088Z,186.80
2018-05-25T22:12:26.697Z,185.23
2018-05-25T22:14:54.531Z,182.50
2018-05-25T22:17:22.216Z,173.60
2018-05-25T22:19:49.863Z,173.60
2018-05-25T22:22:17.562Z,170.97
2018-05-25T22:24:45.197Z,174.57
2018-05-25T22:27:12.779Z,178.30
2018-05-25T22:29:40.361Z,185.37
2018-05-25T22:32:08.082Z,192.60
2018-05-25T22:34:35.657Z,189.37
2018-05-25T22:37:06.652Z,189.77
2018-05-25T22:39:34.238Z,180.37
2018-05-25T22:42:01.369Z,173.37
2018-05-25T22:44:40.935Z,173.63
2018-05-25T22:47:20.297Z,168.83
2018-05-25T22:49:59.581Z,172.17
2018-05-25T22:52:33.110Z,172.43
2018-05-25T22:55:00.803Z,168.00
2018-05-25T22:57:28.415Z,168.10
2018-05-25T22:59:55.988Z,166.30
2018-05-25T23:02:23.583Z,171.27
2018-05-25T23:04:51.200Z,179.23
2018-05-25T23:07:18.802Z,193.07
2018-05-25T23:09:46.424Z,204.57
2018-05-25T23:12:14.006Z,218.50
2018-05-25T23:14:41.581Z,232.73
2018-05-25T23:17:09.221Z,237.03
2018-05-25T23:19:36.797Z,290.27
2018-05-25T23:22:04.373Z,286.90
2018-05-25T23:24:31.996Z,258.97
2018-05-25T23:26:59.575Z,229.20
2018-05-25T23:29:27.200Z,174.73
2018-05-25T23:31:54.791Z,136.40
2018-05-25T23:34:22.417Z,115.70
2018-05-25T23:36:50.002Z,121.27
2018-05-25T23:39:17.625Z,146.70
2018-05-25T23:41:45.258Z,185.63
2018-05-25T23:44:12.868Z,196.83
2018-05-25T23:46:40.450Z,199.73
2018-05-25T23:49:08.069Z,189.17
2018-05-25T23:51:35.655Z,156.77
2018-05-25T23:54:03.272Z,134.20
2018-05-25T23:56:30.897Z,124.50
2018-05-25T23:58:58.477Z,121.37
